Time;durP1;ratioP1;P1;durP2;ratioP2;P2;SDS_P1;SDS_P2;PMS_P1;PMS_P2;Temp;Humidity;BMP_temperature;BMP_pressure;BME280_temperature;BME280_humidity;BME280_pressure;Samples;Min_cycle;Max_cycle;Signal;HPM_P1;HPM_P2
2021/01/30 00:00:24;;;;;;;28.60;11.98;;;;;;;;;;5035603;28;20029;-60
2021/01/30 00:02:50;;;;;;;28.60;12.88;;;;;;;;;;5017529;28;20033;-60
2021/01/30 00:05:16;;;;;;;27.58;12.57;;;;;;;;;;5035023;28;20028;-60
2021/01/30 00:07:42;;;;;;;24.65;10.73;;;;;;;;;;5034793;28;20460;-58
2021/01/30 00:10:08;;;;;;;27.38;12.10;;;;;;;;;;5042373;28;20071;-58
2021/01/30 00:12:35;;;;;;;27.15;11.15;;;;;;;;;;5054806;28;20128;-59
2021/01/30 00:15:01;;;;;;;25.45;10.77;;;;;;;;;;5055081;28;20025;-59
2021/01/30 00:17:27;;;;;;;27.30;11.40;;;;;;;;;;5054607;28;20017;-60
2021/01/30 00:19:53;;;;;;;26.52;11.23;;;;;;;;;;5054535;28;20108;-56
2021/01/30 00:22:20;;;;;;;24.10;11.02;;;;;;;;;;5036920;28;20534;-58
2021/01/30 00:24:48;;;;;;;27.02;12.00;;;;;;;;;;5049190;28;20056;-53
2021/01/30 00:27:16;;;;;;;26.52;11.32;;;;;;;;;;5034565;28;20505;-57
2021/01/30 00:29:42;;;;;;;28.17;12.88;;;3.60;99.90;;;;;;5016914;28;20492;-58
2021/01/30 00:32:10;;;;;;;26.58;11.88;;;2.10;99.90;;;;;;5034535;28;20030;-56
2021/01/30 00:34:37;;;;;;;26.13;12.15;;;2.00;99.90;;;;;;5016180;28;20512;-62
2021/01/30 00:37:18;;;;;;;27.30;13.23;;;2.00;99.90;;;;;;5034075;28;20036;-62
2021/01/30 00:39:44;;;;;;;29.98;13.65;;;1.90;99.90;;;;;;5033890;28;20040;-62
2021/01/30 00:42:12;;;;;;;29.42;13.35;;;1.90;99.90;;;;;;5016619;28;20025;-61
2021/01/30 00:44:38;;;;;;;30.55;15.05;;;1.90;99.90;;;;;;5016138;28;20030;-63
2021/01/30 00:47:05;;;;;;;28.77;13.73;;;2.00;99.90;;;;;;5015898;28;20116;-62
2021/01/30 00:49:31;;;;;;;28.42;12.30;;;1.80;99.90;;;;;;5033787;28;20485;-62
2021/01/30 00:51:57;;;;;;;28.90;14.15;;;1.80;99.90;;;;;;5015778;28;20120;-60
2021/01/30 00:54:23;;;;;;;31.88;14.25;;;;;;;;;;5033589;28;20056;-63
2021/01/30 00:56:50;;;;;;;27.92;13.73;;;;;;;;;;5015857;28;20025;-62
2021/01/30 00:59:16;;;;;;;27.08;13.43;;;;;;;;;;5033349;28;20028;-63
2021/01/30 01:01:42;;;;;;;29.42;14.30;;;;;;;;;;5033095;28;20037;-59
2021/01/30 01:04:08;;;;;;;33.67;16.30;;;;;;;;;;4337860;28;10000741;-61
2021/01/30 01:06:35;;;;;;;31.95;15.95;;;;;;;;;;5013613;28;20076;-61
2021/01/30 01:09:01;;;;;;;30.95;15.10;;;;;;;;;;5058340;23;20073;-66
2021/01/30 01:11:27;;;;;;;31.52;16.80;;;;;;;;;;5051674;28;20507;-64
2021/01/30 01:13:53;;;;;;;33.97;16.70;;;;;;;;;;5034688;28;20119;-65
2021/01/30 01:16:19;;;;;;;33.33;15.45;;;1.80;99.90;;;;;;5034835;28;20112;-64
2021/01/30 01:18:48;;;;;;;30.88;14.73;;;;;;;;;;5052068;28;20028;-64
2021/01/30 01:21:14;;;;;;;35.72;17.55;;;;;;;;;;5052558;28;20452;-64
2021/01/30 01:23:41;;;;;;;35.65;17.42;;;;;;;;;;5052556;28;20031;-67
2021/01/30 01:26:07;;;;;;;34.00;16.65;;;;;;;;;;5052983;28;20029;-65
2021/01/30 01:28:33;;;;;;;35.70;17.20;;;;;;;;;;5051959;28;20428;-65
2021/01/30 01:31:00;;;;;;;33.42;15.80;;;;;;;;;;5052618;28;20075;-66
2021/01/30 01:33:26;;;;;;;32.42;15.88;;;;;;;;;;5052522;28;20025;-64
2021/01/30 01:35:53;;;;;;;32.42;16.40;;;;;;;;;;5052694;28;20040;-65
2021/01/30 01:38:19;;;;;;;32.63;16.70;;;;;;;;;;5033829;28;20158;-65
2021/01/30 01:40:45;;;;;;;30.92;15.18;;;;;;;;;;5052203;28;20075;-65
2021/01/30 01:43:16;;;;;;;30.27;14.38;;;;;;;;;;5052403;28;20028;-68
2021/01/30 01:45:43;;;;;;;29.63;14.55;;;;;;;;;;5034760;28;20103;-65
2021/01/30 01:48:16;;;;;;;29.35;14.57;;;;;;;;;;5051276;28;20389;-65
2021/01/30 01:50:45;;;;;;;30.92;15.48;;;;;;;;;;5052408;28;20024;-65
2021/01/30 01:53:32;;;;;;;27.95;13.90;;;;;;;;;;5051946;28;20297;-64
2021/01/30 01:56:04;;;;;;;29.75;13.77;;;;;;;;;;5033516;28;20388;-65
2021/01/30 01:58:32;;;;;;;31.58;15.52;;;;;;;;;;5051194;28;20027;-65
2021/01/30 02:00:59;;;;;;;29.52;14.20;;;;;;;;;;5034039;28;20453;-65
2021/01/30 02:03:26;;;;;;;28.10;13.75;;;;;;;;;;5034234;28;20025;-65
2021/01/30 02:05:53;;;;;;;28.42;12.95;;;;;;;;;;5052133;28;20433;-65
2021/01/30 02:08:20;;;;;;;30.05;13.70;;;;;;;;;;5050068;28;20119;-63
2021/01/30 02:10:48;;;;;;;30.30;14.90;;;;;;;;;;5054864;28;20052;-65
2021/01/30 02:13:29;;;;;;;27.40;13.02;;;;;;;;;;5059350;28;20476;-66
2021/01/30 02:15:56;;;;;;;27.75;13.70;;;;;;;;;;5058755;28;20055;-64
2021/01/30 02:18:34;;;;;;;27.50;11.97;;;;;;;;;;5058063;28;20040;-66
2021/01/30 02:21:07;;;;;;;28.33;13.18;;;;;;;;;;5054562;28;20068;-66
2021/01/30 02:23:45;;;;;;;27.20;12.82;;;;;;;;;;5054927;28;20017;-65
2021/01/30 02:26:29;;;;;;;27.65;13.30;;;;;;;;;;5053619;28;20126;-65
2021/01/30 02:29:04;;;;;;;33.00;15.32;;;;;;;;;;5052785;28;20099;-65
2021/01/30 02:31:46;;;;;;;28.88;13.60;;;;;;;;;;5054187;28;20444;-66
2021/01/30 02:34:30;;;;;;;28.92;14.02;;;;;;;;;;5050875;28;20040;-65
2021/01/30 02:37:09;;;;;;;28.23;13.13;;;;;;;;;;5051081;28;20392;-65
2021/01/30 02:39:35;;;;;;;;;;;;;;;;;;5050760;28;20039;-65
2021/01/30 02:42:01;;;;;;;24.52;11.10;;;;;;;;;;5033310;28;19909;-66
2021/01/30 02:44:29;;;;;;;24.45;11.57;;;;;;;;;;5051257;28;20028;-65
2021/01/30 02:46:57;;;;;;;25.13;12.20;;;;;;;;;;5051049;28;20108;-65
2021/01/30 02:49:26;;;;;;;22.85;10.07;;;;;;;;;;5033014;28;20399;-65
2021/01/30 02:51:59;;;;;;;24.33;9.85;;;;;;;;;;5033241;28;20653;-66
2021/01/30 02:54:25;;;;;;;21.30;10.52;;;;;;;;;;5051046;28;20025;-65
2021/01/30 02:56:54;;;;;;;20.60;9.20;;;;;;;;;;5045078;28;20044;-65
2021/01/30 02:59:22;;;;;;;22.40;9.32;;;;;;;;;;5046961;28;20021;-66
2021/01/30 03:01:48;;;;;;;22.55;9.40;;;;;;;;;;5051208;28;20025;-65
2021/01/30 03:04:17;;;;;;;19.27;7.95;;;;;;;;;;5033145;28;20076;-65
2021/01/30 03:06:53;;;;;;;20.10;8.85;;;;;;;;;;5043418;28;20041;-65
2021/01/30 03:09:30;;;;;;;21.58;9.20;;;;;;;;;;5042704;28;20040;-65
2021/01/30 03:12:02;;;;;;;19.42;8.05;;;;;;;;;;5032918;28;20087;-65
2021/01/30 03:14:29;;;;;;;19.20;8.18;;;;;;;;;;5050916;28;20473;-65
2021/01/30 03:16:56;;;;;;;19.35;7.72;;;;;;;;;;5032897;28;20032;-64
2021/01/30 03:19:24;;;;;;;16.65;6.15;;;;;;;;;;5050034;28;20060;-65
2021/01/30 03:21:56;;;;;;;18.00;7.70;;;;;;;;;;5032605;28;20025;-65
2021/01/30 03:24:22;;;;;;;17.90;6.93;;;;;;;;;;5050835;28;20029;-65
2021/01/30 03:26:48;;;;;;;19.45;7.65;;;;;;;;;;5050630;28;20021;-66
2021/01/30 03:29:18;;;;;;;19.17;7.20;;;;;;;;;;5049662;28;20108;-65
2021/01/30 03:31:44;;;;;;;18.17;6.95;;;;;;;;;;5049383;28;20102;-65
2021/01/30 03:34:11;;;;;;;17.75;7.05;;;;;;;;;;5034776;28;20029;-65
2021/01/30 03:36:37;;;;;;;17.33;6.78;;;;;;;;;;5045633;28;20029;-65
2021/01/30 03:39:05;;;;;;;18.50;7.63;;;;;;;;;;5032611;28;20343;-65
2021/01/30 03:41:31;;;;;;;18.90;6.70;;;;;;;;;;5050579;28;20104;-65
2021/01/30 03:43:57;;;;;;;52.53;10.73;;;;;;;;;;5050644;28;20063;-65
2021/01/30 03:46:23;;;;;;;20.25;8.52;;;;;;;;;;5032756;28;20017;-65
2021/01/30 03:48:49;;;;;;;19.40;7.35;;;;;;;;;;5030958;28;20064;-66
2021/01/30 03:51:16;;;;;;;20.77;8.25;;;;;;;;;;5050007;28;20033;-66
2021/01/30 03:53:42;;;;;;;19.58;7.78;;;;;;;;;;5049423;28;20048;-66
2021/01/30 03:56:10;;;;;;;20.30;8.07;;;;;;;;;;5044721;28;20086;-65
2021/01/30 03:58:37;;;;;;;20.75;8.65;;;;;;;;;;5031638;28;20117;-67
2021/01/30 04:01:03;;;;;;;22.00;8.30;;;;;;;;;;5037603;28;20025;-65
2021/01/30 04:03:30;;;;;;;19.70;8.00;;;;;;;;;;5019708;28;20028;-65
2021/01/30 04:05:56;;;;;;;21.70;8.68;;;;;;;;;;5048151;28;20025;-65
2021/01/30 04:08:23;;;;;;;24.52;10.15;;;;;;;;;;5049645;28;20025;-65
2021/01/30 04:10:49;;;;;;;21.27;9.85;;;;;;;;;;5031702;28;20075;-65
2021/01/30 04:13:17;;;;;;;20.75;9.70;;;;;;;;;;5053884;28;20388;-65
2021/01/30 04:15:44;;;;;;;20.65;9.63;;;;;;;;;;5054336;28;20052;-65
2021/01/30 04:18:10;;;;;;;22.80;10.73;;;;;;;;;;5036017;28;20044;-65
2021/01/30 04:20:36;;;;;;;22.30;10.73;;;;;;;;;;5035667;28;20500;-65
2021/01/30 04:23:04;;;;;;;21.55;10.00;;;;;;;;;;5049285;28;20056;-65
2021/01/30 04:25:30;;;;;;;22.23;9.90;;;;;;;;;;5052492;28;20350;-65
2021/01/30 04:27:56;;;;;;;23.58;10.80;;;;;;;;;;5053678;28;20029;-65
2021/01/30 04:30:24;;;;;;;22.00;9.57;;;;;;;;;;5051925;28;20556;-65
2021/01/30 04:32:50;;;;;;;21.48;9.93;;;;;;;;;;5053465;28;20037;-65
2021/01/30 04:35:17;;;;;;;20.13;8.95;;;;;;;;;;5051008;28;20044;-64
2021/01/30 04:37:43;;;;;;;21.35;9.70;;;;;;;;;;5035563;28;20484;-65
2021/01/30 04:40:11;;;;;;;20.80;9.88;;;;;;;;;;5053119;28;20067;-65
2021/01/30 04:42:37;;;;;;;21.45;9.35;;;;;;;;;;5053647;28;20069;-65
2021/01/30 04:45:03;;;;;;;20.98;9.00;;;;;;;;;;5053602;28;20032;-64
2021/01/30 04:47:36;;;;;;;22.92;9.85;;;;;;;;;;5053270;28;20321;-64
2021/01/30 04:50:11;;;;;;;19.77;8.95;;;;;;;;;;5053179;28;20029;-64
2021/01/30 04:52:49;;;;;;;22.88;9.80;;;;;;;;;;5015965;28;20040;-65
2021/01/30 04:55:21;;;;;;;21.65;8.98;;;;;;;;;;5015592;28;20112;-64
2021/01/30 04:57:58;;;;;;;22.80;9.95;;;;;;;;;;5015532;28;20025;-65
2021/01/30 05:00:43;;;;;;;22.17;9.25;;;;;;;;;;5048297;28;21336;-64
2021/01/30 05:03:28;;;;;;;24.10;10.50;;;;;;;;;;5050622;28;20021;-65
2021/01/30 05:05:57;;;;;;;24.58;10.93;;;;;;;;;;5040138;28;20085;-65
2021/01/30 05:08:26;;;;;;;23.80;11.25;;;;;;;;;;5041905;28;20040;-65
2021/01/30 05:11:00;;;;;;;23.67;10.88;;;;;;;;;;5051355;28;20086;-63
2021/01/30 05:13:35;;;;;;;25.17;11.23;;;;;;;;;;5051883;28;20033;-64
2021/01/30 05:16:02;;;;;;;22.42;10.70;;;;;;;;;;5052397;28;20025;-64
2021/01/30 05:18:31;;;;;;;24.73;10.70;;;;;;;;;;5052870;28;20025;-64
2021/01/30 05:21:17;;;;;;;23.27;9.95;;;;;;;;;;5052909;28;20029;-65
2021/01/30 05:23:45;;;;;;;21.30;9.00;;;;;;;;;;5053670;28;20044;-64
2021/01/30 05:26:31;;;;;;;22.83;9.15;;;;;;;;;;5034913;28;20032;-64
2021/01/30 05:29:04;;;;;;;22.83;10.02;;;1.40;99.90;;;;;;5051913;28;20017;-64
2021/01/30 05:31:49;;;;;;;22.65;9.80;;;;;;;;;;5034584;28;20021;-64
2021/01/30 05:34:25;;;;;;;21.60;8.82;;;;;;;;;;5044021;28;20111;-64
2021/01/30 05:36:56;;;;;;;20.80;8.68;;;;;;;;;;5046308;28;20028;-64
2021/01/30 05:39:43;;;;;;;21.58;9.35;;;;;;;;;;5051881;28;20476;-65
2021/01/30 05:42:17;;;;;;;21.70;9.43;;;1.30;99.90;;;;;;5052296;28;20388;-65
2021/01/30 05:44:48;;;;;;;20.55;7.65;;;1.10;99.90;;;;;;5051036;28;20395;-66
2021/01/30 05:47:19;;;;;;;21.35;8.88;;;1.00;99.90;;;;;;5052221;28;20041;-64
2021/01/30 05:50:10;;;;;;;20.23;8.65;;;1.00;99.90;;;;;;5041700;28;20025;-64
2021/01/30 05:52:38;;;;;;;21.58;9.20;;;1.00;99.90;;;;;;5041431;28;20044;-64
2021/01/30 05:55:30;;;;;;;24.50;10.20;;;1.00;99.90;;;;;;5051848;28;20341;-64
2021/01/30 05:57:57;;;;;;;22.17;9.77;;;1.00;99.90;;;;;;5051352;28;20033;-63
2021/01/30 06:00:25;;;;;;;22.90;8.98;;;1.00;99.90;;;;;;5051097;28;20025;-65
2021/01/30 06:03:00;;;;;;;25.60;9.07;;;1.00;99.90;;;;;;5050508;28;20118;-66
2021/01/30 06:05:31;;;;;;;21.40;9.18;;;1.00;99.90;;;;;;5051739;28;20032;-65
2021/01/30 06:08:26;;;;;;;22.17;9.57;;;1.00;99.90;;;;;;5051648;28;20040;-66
2021/01/30 06:11:03;;;;;;;19.95;7.78;;;1.00;99.90;;;;;;5051829;28;20043;-65
2021/01/30 06:13:30;;;;;;;20.52;8.07;;;1.00;99.90;;;;;;5051872;28;20112;-66
2021/01/30 06:15:58;;;;;;;20.08;8.48;;;1.00;99.90;;;;;;5033535;28;20482;-66
2021/01/30 06:18:24;;;;;;;;;;;;;;;;;;5051359;28;20029;-64
2021/01/30 06:21:01;;;;;;;20.17;7.68;;;;;;;;;;5053174;28;20400;-65
2021/01/30 06:23:30;;;;;;;22.10;9.45;;;;;;;;;;5052429;28;20025;-65
2021/01/30 06:26:16;;;;;;;23.33;9.85;;;;;;;;;;5051805;28;20021;-66
2021/01/30 06:28:45;;;;;;;21.13;8.70;;;;;;;;;;5050323;28;20055;-66
2021/01/30 06:31:11;;;;;;;20.42;9.25;;;;;;;;;;5051264;28;20029;-65
2021/01/30 06:33:42;;;;;;;23.48;10.13;;;;;;;;;;5050837;28;20029;-66
2021/01/30 06:36:14;;;;;;;23.23;9.40;;;;;;;;;;5045618;28;20021;-64
2021/01/30 06:38:42;;;;;;;22.52;10.32;;;;;;;;;;5049406;28;20029;-64
2021/01/30 06:41:16;;;;;;;21.35;8.68;;;;;;;;;;5051267;28;20025;-65
2021/01/30 06:43:46;;;;;;;22.00;9.57;;;;;;;;;;5051185;28;20074;-65
2021/01/30 06:46:17;;;;;;;22.30;9.80;;;;;;;;;;5051185;28;20064;-65
2021/01/30 06:48:44;;;;;;;24.05;9.80;;;;;;;;;;5051044;28;20032;-65
2021/01/30 06:51:29;;;;;;;24.45;10.05;;;;;;;;;;5051502;28;20036;-65
2021/01/30 06:53:55;;;;;;;23.00;10.20;;;;;;;;;;5051711;28;20036;-64
2021/01/30 06:56:26;;;;;;;19.83;7.75;;;;;;;;;;5033538;28;20486;-64
2021/01/30 06:59:01;;;;;;;18.48;6.82;;;;;;;;;;5050880;28;20028;-64
2021/01/30 07:01:36;;;;;;;18.00;6.63;;;;;;;;;;5050589;28;20036;-65
2021/01/30 07:04:16;;;;;;;17.98;6.75;;;;;;;;;;5050746;28;20032;-65
2021/01/30 07:06:52;;;;;;;21.10;7.95;;;;;;;;;;5043204;28;20175;-65
2021/01/30 07:09:36;;;;;;;18.45;7.15;;;;;;;;;;5065983;23;20442;-60
2021/01/30 07:12:05;;;;;;;20.27;6.85;;;;;;;;;;5031902;28;20021;-60
2021/01/30 07:14:31;;;;;;;18.15;7.15;;;;;;;;;;5014092;28;20366;-60
2021/01/30 07:17:01;;;;;;;19.13;7.35;;;;;;;;;;5031917;28;20025;-62
2021/01/30 07:19:35;;;;;;;20.25;8.10;;;;;;;;;;5030967;28;20038;-60
2021/01/30 07:22:07;;;;;;;20.45;7.90;;;;;;;;;;5030432;28;20105;-63
2021/01/30 07:24:42;;;;;;;17.83;6.88;;;;;;;;;;5032048;28;20021;-60
2021/01/30 07:27:21;;;;;;;19.08;7.13;;;;;;;;;;5031889;28;20152;-60
2021/01/30 07:29:57;;;;;;;20.70;7.88;;;;;;;;;;5031103;28;20374;-62
2021/01/30 07:32:29;;;;;;;20.17;7.32;;;;;;;;;;5020945;28;20032;-62
2021/01/30 07:35:19;;;;;;;20.98;7.63;;;;;;;;;;5031969;28;20030;-63
2021/01/30 07:37:54;;;;;;;18.48;7.00;;;;;;;;;;5003856;28;20497;-61
2021/01/30 07:40:46;;;;;;;19.25;7.28;;;;;;;;;;5011190;28;20026;-63
2021/01/30 07:43:23;;;;;;;18.92;7.20;;;;;;;;;;5009070;28;20033;-63
2021/01/30 07:45:57;;;;;;;21.17;7.45;;;;;;;;;;5033602;28;20045;-61
2021/01/30 07:48:25;;;;;;;20.90;7.30;;;;;;;;;;5017426;28;20028;-62
2021/01/30 07:50:53;;;;;;;19.13;7.68;;;;;;;;;;5035459;28;20033;-61
2021/01/30 07:53:21;;;;;;;19.10;6.88;;;;;;;;;;5035206;28;20112;-62
2021/01/30 07:55:57;;;;;;;19.38;6.85;;;;;;;;;;5034003;28;20078;-62
2021/01/30 07:58:35;;;;;;;19.85;8.15;;;;;;;;;;5034797;28;20044;-61
2021/01/30 08:01:12;;;;;;;18.67;7.35;;;;;;;;;;5034569;28;20104;-62
2021/01/30 08:03:56;;;;;;;19.60;7.40;;;;;;;;;;5017008;28;20043;-64
2021/01/30 08:06:41;;;;;;;20.58;8.40;;;;;;;;;;5022533;28;20025;-62
2021/01/30 08:09:26;;;;;;;21.48;8.55;;;;;;;;;;5029743;28;20041;-63
2021/01/30 08:11:59;;;;;;;19.70;7.63;;;;;;;;;;5033771;28;20025;-64
2021/01/30 08:14:43;;;;;;;20.95;8.05;;;;;;;;;;5033609;28;20034;-63
2021/01/30 08:17:26;;;;;;;21.10;7.90;;;1.00;99.90;;;;;;5034892;28;20414;-64
2021/01/30 08:20:17;;;;;;;21.05;8.05;;;1.30;99.90;;;;;;5033736;28;20087;-64
2021/01/30 08:22:58;;;;;;;21.83;8.38;;;1.40;99.90;;;;;;5034576;28;20382;-60
2021/01/30 08:26:05;;;;;;;22.65;8.32;;;1.50;99.90;;;;;;5016780;28;20382;-60
2021/01/30 08:28:40;;;;;;;19.73;8.30;;;1.50;99.90;;;;;;4927855;28;20048;-59
2021/01/30 08:31:05;;;;;;;21.20;8.85;;;1.60;99.90;;;;;;4952951;28;20399;-59
2021/01/30 08:34:09;;;;;;;21.75;8.82;;;1.60;99.90;;;;;;4990510;28;20132;-60
2021/01/30 08:36:49;;;;;;;20.90;8.23;;;1.40;99.90;;;;;;4993583;28;20044;-58
2021/01/30 08:39:23;;;;;;;20.50;8.00;;;1.40;99.90;;;;;;5015803;28;20049;-60
2021/01/30 08:42:14;;;;;;;21.88;8.55;;;1.40;99.90;;;;;;5034263;28;20022;-59
2021/01/30 08:44:54;;;;;;;20.27;7.95;;;1.50;99.90;;;;;;5026357;28;20049;-60
2021/01/30 08:47:25;;;;;;;22.38;9.18;;;1.60;99.90;;;;;;5034348;28;20026;-60
2021/01/30 08:50:09;;;;;;;22.10;8.95;;;1.60;99.90;;;;;;5016071;28;20033;-60
2021/01/30 08:52:44;;;;;;;21.52;9.23;;;1.60;99.90;;;;;;5016560;28;20025;-61
2021/01/30 08:55:34;;;;;;;20.40;8.95;;;1.60;99.90;;;;;;5016612;28;20022;-63
2021/01/30 08:58:01;;;;;;;22.23;9.20;;;1.50;99.90;;;;;;5034098;28;20091;-61
2021/01/30 09:00:26;;;;;;;23.65;10.00;;;1.60;99.90;;;;;;5033704;28;20029;-63
2021/01/30 09:02:55;;;;;;;21.25;8.65;;;1.60;99.90;;;;;;5020921;28;20053;-60
2021/01/30 09:05:24;;;;;;;25.58;10.57;;;1.60;99.90;;;;;;5033458;28;20033;-59
2021/01/30 09:07:51;;;;;;;;;;;1.70;99.90;;;;;;5032761;28;20397;-61
2021/01/30 09:10:22;;;;;;;21.42;8.85;;;1.70;99.90;;;;;;5032037;28;20435;-62
2021/01/30 09:13:00;;;;;;;23.08;9.20;;;;;;;;;;5033489;28;20033;-59
2021/01/30 09:15:39;;;;;;;22.55;9.50;;;;;;;;;;5033385;28;20026;-62
2021/01/30 09:18:10;;;;;;;23.42;9.15;;;;;;;;;;5037505;28;20029;-65
2021/01/30 09:20:40;;;;;;;21.52;9.27;;;;;;;;;;5042350;28;20033;-66
2021/01/30 09:23:15;;;;;;;22.77;10.30;;;;;;;;;;5043689;28;20059;-67
2021/01/30 09:25:51;;;;;;;22.05;9.50;;;;;;;;;;5042937;28;20099;-67
2021/01/30 09:28:28;;;;;;;21.23;9.88;;;;;;;;;;5028812;28;20069;-66
2021/01/30 09:31:03;;;;;;;22.73;10.13;;;;;;;;;;5027881;28;20026;-66
2021/01/30 09:33:55;;;;;;;20.88;9.05;;;;;;;;;;5039856;28;20034;-65
2021/01/30 09:36:30;;;;;;;20.77;8.40;;;;;;;;;;4997048;28;20063;-67
2021/01/30 09:38:59;;;;;;;20.90;8.75;;;;;;;;;;5042114;28;20021;-65
2021/01/30 09:41:25;;;;;;;;;;;;;;;;;;5027675;28;20025;-66
2021/01/30 09:44:10;;;;;;;21.75;9.05;;;;;;;;;;5025507;28;19905;-66
2021/01/30 09:46:38;;;;;;;20.50;8.18;;;;;;;;;;5026050;28;20032;-66
2021/01/30 09:49:09;;;;;;;21.13;8.40;;;;;;;;;;5025553;28;20032;-66
2021/01/30 09:51:40;;;;;;;23.92;9.43;;;;;;;;;;5026043;28;20029;-65
2021/01/30 09:54:06;;;;;;;22.00;8.65;;;;;;;;;;5043583;28;20028;-66
2021/01/30 09:56:36;;;;;;;20.40;9.05;;;;;;;;;;5044369;28;20025;-68
2021/01/30 09:59:03;;;;;;;21.85;8.32;;;;;;;;;;5015609;28;20025;-56
2021/01/30 10:01:29;;;;;;;22.08;9.13;;;;;;;;;;5007973;28;20040;-55
2021/01/30 10:03:55;;;;;;;22.13;9.82;;;;;;;;;;5004773;28;20037;-61
2021/01/30 10:06:29;;;;;;;22.15;8.82;;;;;;;;;;5004689;28;20029;-55
2021/01/30 10:09:06;;;;;;;20.33;8.13;;;;;;;;;;5031297;28;20025;-55
2021/01/30 10:11:35;;;;;;;19.55;8.05;;;;;;;;;;5014078;28;20033;-58
2021/01/30 10:14:01;;;;;;;;;;;;;;;;;;5032454;28;20566;-55
2021/01/30 10:16:27;;;;;;;19.50;7.43;;;;;;;;;;5032484;28;19963;-58
2021/01/30 10:18:56;;;;;;;20.50;7.93;;;;;;;;;;5031990;28;20037;-55
2021/01/30 10:21:33;;;;;;;22.55;8.13;;;;;;;;;;5014349;28;20040;-59
2021/01/30 10:24:10;;;;;;;20.88;8.40;;;;;;;;;;5031128;28;20107;-56
2021/01/30 10:26:36;;;;;;;21.83;8.40;;;;;;;;;;5030908;28;20033;-56
2021/01/30 10:29:05;;;;;;;19.13;8.02;;;;;;;;;;5015637;28;20050;-57
2021/01/30 10:31:34;;;;;;;20.63;8.20;;;;;;;;;;4994735;28;20022;-61
2021/01/30 10:34:03;;;;;;;21.17;8.95;;;;;;;;;;4994590;28;20038;-58
2021/01/30 10:36:30;;;;;;;22.80;8.77;;;;;;;;;;5011378;28;20121;-61
2021/01/30 10:38:59;;;;;;;20.92;8.70;;;;;;;;;;5030762;28;20032;-55
2021/01/30 10:41:25;;;;;;;;;;;;;;;;;;5030922;28;20029;-57
2021/01/30 10:43:57;;;;;;;20.92;7.50;;;;;;;;;;5014137;28;19909;-60
2021/01/30 10:46:32;;;;;;;19.13;7.88;;;;;;;;;;5031459;28;20030;-58
2021/01/30 10:49:03;;;;;;;21.25;8.75;;;;;;;;;;5012840;28;20017;-56
2021/01/30 10:51:31;;;;;;;19.63;8.07;;;;;;;;;;5010125;28;20026;-60
2021/01/30 10:54:11;;;;;;;19.92;8.13;;;;;;;;;;5010017;28;20022;-61
2021/01/30 10:56:37;;;;;;;20.38;7.88;;;;;;;;;;5010681;28;20052;-61
2021/01/30 10:59:20;;;;;;;20.35;8.20;;;;;;;;;;4992816;28;20026;-61
2021/01/30 11:01:46;;;;;;;20.58;8.13;;;;;;;;;;5011395;28;20030;-59
2021/01/30 11:04:23;;;;;;;21.42;8.82;;;;;;;;;;4997736;28;20021;-56
2021/01/30 11:06:49;;;;;;;20.70;8.95;;;;;;;;;;5031386;28;20044;-56
2021/01/30 11:09:24;;;;;;;19.50;7.93;;;;;;;;;;5023688;28;20159;-55
2021/01/30 11:11:51;;;;;;;19.80;7.93;;;;;;;;;;5031483;28;20052;-60
2021/01/30 11:14:25;;;;;;;20.30;8.57;;;;;;;;;;5030174;28;20014;-58
2021/01/30 11:16:52;;;;;;;20.60;8.50;;;;;;;;;;5028420;28;20301;-57
2021/01/30 11:19:23;;;;;;;18.90;8.07;;;;;;;;;;5023474;28;20026;-61
2021/01/30 11:21:50;;;;;;;21.17;9.77;;;;;;;;;;5015914;28;20025;-57
2021/01/30 11:24:36;;;;;;;20.08;8.80;;;;;;;;;;5013697;28;20021;-61
2021/01/30 11:27:03;;;;;;;20.27;8.48;;;;;;;;;;5031000;28;20025;-61
2021/01/30 11:29:35;;;;;;;20.90;8.35;;;;;;;;;;5029487;28;20025;-57
2021/01/30 11:32:02;;;;;;;22.30;8.63;;;;;;;;;;5030196;28;20098;-60
2021/01/30 11:34:28;;;;;;;22.40;9.52;;;;;;;;;;5028167;28;20037;-61
2021/01/30 11:36:55;;;;;;;21.33;8.90;;;;;;;;;;5028611;28;20026;-60
2021/01/30 11:39:25;;;;;;;22.52;9.20;;;;;;;;;;5027443;28;20034;-61
2021/01/30 11:41:51;;;;;;;19.10;8.50;;;1.80;99.90;;;;;;5029007;28;20503;-61
2021/01/30 11:44:18;;;;;;;18.67;8.68;;;5.50;99.90;;;;;;5030114;28;20026;-54
2021/01/30 11:46:43;;;;;;;20.00;9.60;;;5.50;99.90;;;;;;5031127;28;20049;-55
2021/01/30 11:49:09;;;;;;;20.42;9.30;;;5.70;99.90;;;;;;4663622;28;10000373;-59
2021/01/30 11:51:35;;;;;;;16.98;8.15;;;5.70;99.90;;;;;;5010436;28;20057;-56
2021/01/30 11:54:00;;;;;;;19.00;8.02;;;5.70;99.90;;;;;;5010901;28;20025;-59
2021/01/30 11:56:26;;;;;;;20.48;8.00;;;5.50;99.90;;;;;;5028057;28;20071;-64
2021/01/30 11:58:52;;;;;;;21.42;8.38;;;;;;;;;;5027720;28;20022;-58
2021/01/30 12:01:18;;;;;;;17.83;8.43;;;5.80;99.90;;;;;;5027825;28;20031;-60
2021/01/30 12:03:45;;;;;;;20.80;9.90;;;;;;;;;;5011147;28;20203;-60
2021/01/30 12:06:11;;;;;;;19.77;9.57;;;;;;;;;;5028658;28;20025;-58
2021/01/30 12:08:37;;;;;;;18.30;9.23;;;;;;;;;;5009810;28;20030;-55
2021/01/30 12:11:04;;;;;;;21.05;11.10;;;;;;;;;;5010689;28;20033;-62
2021/01/30 12:13:30;;;;;;;24.83;11.70;;;;;;;;;;5010417;28;20523;-58
2021/01/30 12:15:56;;;;;;;18.08;9.55;;;;;;;;;;5010832;28;20116;-56
2021/01/30 12:18:22;;;;;;;21.33;9.95;;;;;;;;;;5010767;28;20129;-62
2021/01/30 12:20:50;;;;;;;20.90;9.13;;;6.80;99.90;;;;;;5030670;28;20030;-62
2021/01/30 12:23:17;;;;;;;18.48;8.77;;;;;;;;;;5030385;28;20025;-60
2021/01/30 12:25:43;;;;;;;17.85;8.02;;;;;;;;;;5011152;28;20489;-56
2021/01/30 12:28:09;;;;;;;19.73;8.35;;;;;;;;;;5009737;28;20033;-60
2021/01/30 12:30:37;;;;;;;19.02;8.52;;;;;;;;;;5026696;28;20517;-60
2021/01/30 12:33:03;;;;;;;18.05;7.85;;;;;;;;;;5031736;28;20107;-59
2021/01/30 12:35:31;;;;;;;18.92;8.30;;;;;;;;;;5033494;28;20411;-62
2021/01/30 12:37:57;;;;;;;17.65;7.88;;;;;;;;;;5034257;28;20033;-60
2021/01/30 12:40:25;;;;;;;18.00;8.07;;;;;;;;;;5033514;28;20086;-60
2021/01/30 12:42:51;;;;;;;17.80;7.63;;;;;;;;;;5034319;28;20076;-61
2021/01/30 12:45:18;;;;;;;19.08;8.30;;;;;;;;;;5016293;28;20552;-60
2021/01/30 12:47:44;;;;;;;17.55;7.68;;;;;;;;;;5016169;28;20098;-62
2021/01/30 12:50:14;;;;;;;18.10;7.85;;;;;;;;;;5015689;28;20247;-60
2021/01/30 12:52:40;;;;;;;17.85;7.95;;;;;;;;;;5033962;28;20029;-57
2021/01/30 12:55:07;;;;;;;19.80;8.05;;;;;;;;;;5016800;28;20090;-58
2021/01/30 12:57:33;;;;;;;17.98;7.90;;;;;;;;;;4999538;28;20053;-58
2021/01/30 12:59:59;;;;;;;19.33;8.55;;;;;;;;;;5020164;28;20527;-56
2021/01/30 13:02:24;;;;;;;18.85;7.60;;;5.20;99.90;;;;;;5024760;28;20108;-56
2021/01/30 13:04:50;;;;;;;18.23;7.60;;;3.70;99.90;;;;;;5019550;28;20413;-61
2021/01/30 13:07:16;;;;;;;19.13;7.50;;;3.40;99.90;;;;;;5016299;28;20079;-57
2021/01/30 13:09:41;;;;;;;19.73;8.68;;;3.30;99.90;;;;;;5026817;23;20238;-63
2021/01/30 13:12:10;;;;;;;18.27;7.88;;;3.40;99.90;;;;;;4976711;28;20027;-63
2021/01/30 13:14:38;;;;;;;20.38;8.95;;;3.40;99.90;;;;;;4993711;28;20219;-62
2021/01/30 13:17:04;;;;;;;18.60;7.95;;;3.30;99.90;;;;;;4976409;28;20023;-61
2021/01/30 13:19:30;;;;;;;19.42;7.78;;;3.20;99.90;;;;;;4992853;28;20026;-63
2021/01/30 13:21:55;;;;;;;20.55;8.65;;;3.20;99.90;;;;;;4993550;28;20454;-64
2021/01/30 13:24:21;;;;;;;18.92;8.10;;;3.30;99.90;;;;;;4976412;28;20021;-63
2021/01/30 13:26:47;;;;;;;18.45;7.63;;;3.30;99.90;;;;;;4980397;28;20078;-64
2021/01/30 13:29:15;;;;;;;21.92;8.57;;;3.20;99.90;;;;;;4978007;28;20478;-65
2021/01/30 13:31:45;;;;;;;18.98;7.72;;;3.20;99.90;;;;;;4976338;28;20041;-63
2021/01/30 13:34:11;;;;;;;19.23;8.93;;;3.30;99.90;;;;;;4993581;28;20493;-63
2021/01/30 13:36:37;;;;;;;20.35;8.23;;;3.30;99.90;;;;;;4992916;28;20033;-63
2021/01/30 13:39:04;;;;;;;18.42;7.68;;;3.20;99.90;;;;;;4993054;28;20045;-63
2021/01/30 13:41:30;;;;;;;19.85;8.23;;;3.30;99.90;;;;;;4995238;28;20022;-62
2021/01/30 13:43:56;;;;;;;18.13;7.45;;;3.40;99.90;;;;;;5011941;28;20026;-62
2021/01/30 13:46:22;;;;;;;21.45;8.25;;;3.30;99.90;;;;;;5012831;28;20041;-62
2021/01/30 13:48:48;;;;;;;21.25;8.43;;;3.30;99.90;;;;;;4994758;28;20032;-62
2021/01/30 13:51:14;;;;;;;19.45;8.27;;;3.40;99.90;;;;;;5011333;28;20036;-63
2021/01/30 13:53:40;;;;;;;20.95;7.53;;;3.50;99.90;;;;;;5013310;28;20034;-61
2021/01/30 13:56:07;;;;;;;18.00;8.00;;;3.50;99.90;;;;;;5012763;28;20098;-61
2021/01/30 13:58:32;;;;;;;18.65;7.47;;;3.50;99.90;;;;;;4994544;28;20029;-63
2021/01/30 14:00:58;;;;;;;18.98;8.70;;;3.40;99.90;;;;;;4994921;28;20033;-63
2021/01/30 14:03:24;;;;;;;18.60;8.10;;;3.40;99.90;;;;;;4995274;28;20513;-63
2021/01/30 14:05:49;;;;;;;18.70;7.68;;;3.50;99.90;;;;;;4995162;28;20125;-61
2021/01/30 14:08:15;;;;;;;18.85;8.00;;;3.50;99.90;;;;;;4995118;28;20062;-61
2021/01/30 14:10:41;;;;;;;18.83;7.45;;;3.40;99.90;;;;;;4993947;28;20038;-61
2021/01/30 14:13:06;;;;;;;18.13;7.30;;;3.30;99.90;;;;;;5011975;28;20026;-61
2021/01/30 14:15:32;;;;;;;20.10;8.32;;;3.40;99.90;;;;;;5012033;28;20512;-62
2021/01/30 14:17:59;;;;;;;19.25;8.55;;;3.30;99.90;;;;;;4994532;28;20034;-62